Time;durP1;ratioP1;P1;durP2;ratioP2;P2;SDS_P1;SDS_P2;PMS_P1;PMS_P2;Temp;Humidity;BMP_temperature;BMP_pressure;BME280_temperature;BME280_humidity;BME280_pressure;Samples;Min_cycle;Max_cycle;Signal;HPM_P1;HPM_P2
2021/09/25 00:03:23;;;;;;;17.90;15.73;;;14.50;99.90;;;;;;6124842;23;20804;-91
2021/09/25 00:14:40;;;;;;;18.00;16.20;;;14.50;99.90;;;;;;6126467;23;20411;-89
2021/09/25 00:17:08;;;;;;;17.50;15.70;;;14.40;99.90;;;;;;6128489;23;20406;-89
2021/09/25 00:19:36;;;;;;;18.23;16.37;;;14.40;99.90;;;;;;6128498;23;20407;-89
2021/09/25 00:22:03;;;;;;;20.73;16.20;;;14.40;99.90;;;;;;6128682;23;20776;-89
2021/09/25 00:24:32;;;;;;;20.30;17.50;;;14.40;99.90;;;;;;6127640;23;20418;-89
2021/09/25 00:26:58;;;;;;;17.00;15.33;;;14.40;99.90;;;;;;6139975;23;20439;-89
2021/09/25 00:29:25;;;;;;;20.20;18.20;;;14.40;99.90;;;;;;6128189;23;20414;-89
2021/09/25 00:31:52;;;;;;;19.77;15.87;;;14.40;99.90;;;;;;6128189;23;20730;-89
2021/09/25 00:34:20;;;;;;;18.13;16.23;;;14.40;99.90;;;;;;6127096;23;20416;-88
2021/09/25 00:36:47;;;;;;;19.10;17.13;;;14.40;99.90;;;;;;6141028;23;20432;-88
2021/09/25 00:39:14;;;;;;;18.87;16.97;;;14.30;99.90;;;;;;6145555;23;20401;-89
2021/09/25 00:41:42;;;;;;;18.50;16.60;;;14.30;99.90;;;;;;6127067;23;20446;-90
2021/09/25 00:44:09;;;;;;;19.10;16.43;;;14.30;99.90;;;;;;6128205;23;20414;-88
2021/09/25 00:46:36;;;;;;;16.20;14.57;;;14.20;99.90;;;;;;6130699;23;20419;-89
2021/09/25 00:49:04;;;;;;;16.80;15.07;;;14.20;99.90;;;;;;6131443;23;20425;-89
2021/09/25 00:51:31;;;;;;;19.10;16.87;;;14.10;99.90;;;;;;6128588;23;20411;-90
2021/09/25 00:53:58;;;;;;;18.37;16.43;;;14.10;99.90;;;;;;6138145;23;20418;-89
2021/09/25 00:56:26;;;;;;;18.07;16.27;;;14.00;99.90;;;;;;6133799;23;20932;-90
2021/09/25 00:58:54;;;;;;;18.80;16.73;;;14.00;99.90;;;;;;6127628;23;20454;-89
2021/09/25 01:01:21;;;;;;;17.77;15.97;;;14.00;99.90;;;;;;6141522;23;20438;-90
2021/09/25 01:03:47;;;;;;;18.33;16.43;;;13.90;99.90;;;;;;6153721;23;20392;-89
2021/09/25 01:06:14;;;;;;;19.27;15.63;;;13.90;99.90;;;;;;6137852;23;20442;-89
2021/09/25 01:08:41;;;;;;;17.87;15.57;;;14.00;99.90;;;;;;6128560;23;20407;-89
2021/09/25 01:11:08;;;;;;;20.20;16.40;;;13.90;99.90;;;;;;6128297;23;20418;-89
2021/09/25 01:13:35;;;;;;;19.13;16.70;;;13.90;99.90;;;;;;6144570;23;20402;-89
2021/09/25 01:16:04;;;;;;;21.43;16.90;;;14.00;99.90;;;;;;6145858;23;20822;-89
2021/09/25 01:18:30;;;;;;;17.77;15.87;;;13.90;99.90;;;;;;6129816;23;20414;-89
2021/09/25 01:21:04;;;;;;;21.13;17.63;;;13.90;99.90;;;;;;6149612;23;20486;-88
2021/09/25 01:23:31;;;;;;;19.77;17.77;;;13.90;99.90;;;;;;6137578;23;20475;-89
2021/09/25 01:25:59;;;;;;;19.67;16.63;;;13.90;99.90;;;;;;6128588;23;20425;-89
2021/09/25 01:28:26;;;;;;;18.87;16.97;;;13.80;99.90;;;;;;6128524;23;20402;-90
2021/09/25 01:30:53;;;;;;;19.73;17.63;;;13.80;99.90;;;;;;6128110;23;20797;-90
2021/09/25 01:33:25;;;;;;;17.40;15.60;;;13.70;99.90;;;;;;6147107;23;20799;-89
2021/09/25 01:35:52;;;;;;;19.07;17.00;;;13.80;99.90;;;;;;6145193;23;20452;-88
2021/09/25 01:38:20;;;;;;;18.87;16.97;;;13.80;99.90;;;;;;6145689;23;20399;-89
2021/09/25 01:40:47;;;;;;;17.33;15.60;;;13.80;99.90;;;;;;6147089;23;20431;-89
2021/09/25 01:43:15;;;;;;;18.77;16.80;;;13.80;99.90;;;;;;6136365;23;20883;-89
2021/09/25 01:45:42;;;;;;;19.40;17.30;;;13.70;99.90;;;;;;6136678;23;20454;-89
2021/09/25 01:48:09;;;;;;;17.77;15.50;;;13.70;99.90;;;;;;6132603;23;20428;-89
2021/09/25 01:50:36;;;;;;;16.67;14.90;;;13.60;99.90;;;;;;6128573;23;20895;-90
2021/09/25 01:53:03;;;;;;;16.37;14.67;;;13.60;99.90;;;;;;6127510;23;20408;-89
2021/09/25 01:55:32;;;;;;;16.00;14.30;;;13.50;99.90;;;;;;6126793;23;20415;-90
2021/09/25 01:58:00;;;;;;;16.00;13.63;;;13.50;99.90;;;;;;6127192;23;20408;-89
2021/09/25 02:00:26;;;;;;;17.20;14.30;;;13.50;99.90;;;;;;6139792;23;20486;-88
2021/09/25 02:02:54;;;;;;;14.83;13.37;;;13.40;99.90;;;;;;6130242;23;20475;-88
2021/09/25 02:05:22;;;;;;;22.30;15.13;;;13.40;99.90;;;;;;6126873;23;20813;-88
2021/09/25 02:07:49;;;;;;;15.80;13.73;;;13.40;99.90;;;;;;6133697;23;20397;-89
2021/09/25 02:10:17;;;;;;;15.83;14.17;;;13.30;99.90;;;;;;6129322;23;20423;-90
2021/09/25 02:12:45;;;;;;;17.93;14.87;;;13.30;99.90;;;;;;6127053;23;20412;-89
2021/09/25 02:15:12;;;;;;;17.97;14.03;;;13.30;99.90;;;;;;6127418;23;20429;-89
2021/09/25 02:17:40;;;;;;;15.50;13.90;;;13.30;99.90;;;;;;6127146;23;20408;-89
2021/09/25 02:20:10;;;;;;;15.53;13.23;;;13.20;99.90;;;;;;6127158;23;20408;-89
2021/09/25 02:22:37;;;;;;;17.10;14.80;;;13.20;99.90;;;;;;6127040;23;20440;-90
2021/09/25 02:25:07;;;;;;;14.97;13.37;;;13.20;99.90;;;;;;6126921;23;20416;-89
2021/09/25 02:27:39;;;;;;;15.43;13.93;;;13.20;99.90;;;;;;6130585;23;20438;-89
2021/09/25 02:30:10;;;;;;;15.57;13.97;;;13.20;99.90;;;;;;6133659;23;20420;-90
2021/09/25 02:32:36;;;;;;;15.60;14.20;;;13.10;99.90;;;;;;6129266;23;20388;-89
2021/09/25 02:35:04;;;;;;;15.20;13.70;;;13.20;99.90;;;;;;6127189;23;20511;-89
2021/09/25 02:37:31;;;;;;;15.70;14.10;;;13.20;99.90;;;;;;6127696;23;20418;-89
2021/09/25 02:39:58;;;;;;;20.27;14.30;;;13.10;99.90;;;;;;6127065;23;20787;-89
2021/09/25 02:42:24;;;;;;;18.37;15.13;;;13.10;99.90;;;;;;6126688;23;20451;-89
2021/09/25 02:44:51;;;;;;;16.53;14.13;;;13.20;99.90;;;;;;6127140;23;20955;-89
2021/09/25 02:47:19;;;;;;;15.00;13.40;;;13.20;99.90;;;;;;6128233;23;20425;-89
2021/09/25 02:49:46;;;;;;;13.50;12.17;;;13.20;99.90;;;;;;6127651;23;20727;-90
2021/09/25 02:52:13;;;;;;;15.50;13.53;;;13.10;99.90;;;;;;6152989;23;20395;-88
2021/09/25 02:54:40;;;;;;;15.70;12.67;;;13.10;99.90;;;;;;6154328;23;20477;-88
2021/09/25 02:57:07;;;;;;;14.73;13.10;;;13.00;99.90;;;;;;6154081;23;20388;-89
2021/09/25 02:59:33;;;;;;;16.17;13.13;;;13.00;99.90;;;;;;6153882;23;20436;-88
2021/09/25 03:02:00;;;;;;;17.50;13.57;;;12.90;99.90;;;;;;6153626;23;20727;-88
2021/09/25 03:04:28;;;;;;;16.67;14.83;;;12.90;99.90;;;;;;6136802;23;20419;-89
2021/09/25 03:06:55;;;;;;;23.20;14.10;;;12.80;99.90;;;;;;6149538;23;20419;-89
2021/09/25 03:09:23;;;;;;;16.83;13.83;;;12.80;99.90;;;;;;6154083;23;20467;-88
2021/09/25 03:11:50;;;;;;;15.27;13.33;;;12.90;99.90;;;;;;6153555;23;20396;-88
2021/09/25 03:14:17;;;;;;;14.53;12.03;;;12.80;99.90;;;;;;6153666;23;20415;-88
2021/09/25 03:16:43;;;;;;;14.87;12.90;;;12.80;99.90;;;;;;6146694;23;20527;-87
2021/09/25 03:19:10;;;;;;;14.47;12.90;;;12.70;99.90;;;;;;6151486;23;20472;-89
2021/09/25 03:21:38;;;;;;;16.70;13.20;;;12.70;99.90;;;;;;6140892;23;20396;-88
2021/09/25 03:24:06;;;;;;;16.30;14.50;;;12.70;99.90;;;;;;6130001;23;20413;-90
2021/09/25 03:26:32;;;;;;;17.77;13.20;;;12.70;99.90;;;;;;6128848;23;20425;-90
2021/09/25 03:28:59;;;;;;;14.80;13.30;;;12.70;99.90;;;;;;6128591;23;20421;-89
2021/09/25 03:31:26;;;;;;;17.43;13.23;;;12.60;99.90;;;;;;6137231;23;20396;-89
2021/09/25 03:33:53;;;;;;;15.20;11.80;;;12.60;99.90;;;;;;6129146;23;20421;-90
2021/09/25 03:36:20;;;;;;;12.63;11.10;;;12.60;99.90;;;;;;6131338;23;20436;-88
2021/09/25 03:38:48;;;;;;;13.53;12.13;;;12.60;99.90;;;;;;6128879;23;20408;-88
2021/09/25 03:41:14;;;;;;;12.97;11.77;;;12.60;99.90;;;;;;6129629;23;20415;-88
2021/09/25 03:43:41;;;;;;;12.67;11.47;;;12.60;99.90;;;;;;6129267;23;20628;-88
2021/09/25 03:46:08;;;;;;;13.67;12.03;;;12.60;99.90;;;;;;6129174;23;20435;-88
2021/09/25 03:48:35;;;;;;;14.43;12.60;;;12.50;99.90;;;;;;6131651;23;20395;-88
2021/09/25 03:51:01;;;;;;;14.90;13.13;;;12.50;99.90;;;;;;6131184;23;20416;-89
2021/09/25 03:53:28;;;;;;;12.73;11.30;;;12.50;99.90;;;;;;6131323;23;20491;-88
2021/09/25 03:55:56;;;;;;;12.40;11.10;;;12.50;99.90;;;;;;6128376;23;20436;-89
2021/09/25 03:58:23;;;;;;;12.63;11.30;;;12.40;99.90;;;;;;6128620;23;20416;-89
2021/09/25 04:00:50;;;;;;;15.57;11.57;;;12.40;99.90;;;;;;6129086;23;20736;-88
2021/09/25 04:03:17;;;;;;;16.83;12.80;;;12.40;99.90;;;;;;6128235;23;20435;-89
2021/09/25 04:05:43;;;;;;;13.70;11.07;;;12.40;99.90;;;;;;6126556;23;20462;-90
2021/09/25 04:08:10;;;;;;;16.53;12.70;;;12.30;99.90;;;;;;6135357;23;20389;-91
2021/09/25 04:10:37;;;;;;;13.17;11.60;;;12.30;99.90;;;;;;6142460;23;20413;-91
2021/09/25 04:13:05;;;;;;;14.80;12.63;;;12.30;99.90;;;;;;6139893;23;20396;-91
2021/09/25 04:15:32;;;;;;;13.33;11.87;;;12.30;99.90;;;;;;6135799;23;20436;-91
2021/09/25 04:17:59;;;;;;;14.23;11.63;;;12.30;99.90;;;;;;6144525;23;20404;-88
2021/09/25 04:20:25;;;;;;;12.80;11.50;;;12.30;99.90;;;;;;6150047;23;20455;-89
2021/09/25 04:22:52;;;;;;;13.67;12.17;;;12.30;99.90;;;;;;6140663;23;20443;-91
2021/09/25 04:25:19;;;;;;;17.20;12.87;;;12.30;99.90;;;;;;6143464;23;20412;-89
2021/09/25 04:27:49;;;;;;;12.67;11.13;;;12.20;99.90;;;;;;6145508;23;20467;-92
2021/09/25 04:30:17;;;;;;;12.60;11.03;;;12.10;99.90;;;;;;6142897;23;20446;-92
2021/09/25 04:32:44;;;;;;;13.07;11.77;;;12.20;99.90;;;;;;6136386;23;20408;-90
2021/09/25 04:35:11;;;;;;;13.07;11.07;;;12.10;99.90;;;;;;6137493;23;20424;-91
2021/09/25 04:37:38;;;;;;;12.93;11.63;;;12.10;99.90;;;;;;6147596;23;20420;-90
2021/09/25 04:40:06;;;;;;;11.77;10.20;;;12.10;99.90;;;;;;6146371;23;20511;-90
2021/09/25 04:42:32;;;;;;;12.13;10.77;;;12.10;99.90;;;;;;6152661;23;20430;-91
2021/09/25 04:44:59;;;;;;;13.83;11.20;;;12.10;99.90;;;;;;6153470;23;20430;-91
2021/09/25 04:47:27;;;;;;;13.90;10.17;;;12.10;99.90;;;;;;6145495;23;20423;-91
2021/09/25 04:49:54;;;;;;;13.17;10.90;;;12.10;99.90;;;;;;6138581;23;20407;-92
2021/09/25 04:52:21;;;;;;;14.17;11.60;;;12.00;99.90;;;;;;6138281;23;20427;-92
2021/09/25 04:54:48;;;;;;;15.97;11.87;;;12.00;99.90;;;;;;6137391;23;20423;-90
2021/09/25 04:57:14;;;;;;;14.30;11.27;;;12.00;99.90;;;;;;6140205;23;20415;-90
2021/09/25 04:59:41;;;;;;;12.67;11.57;;;12.00;99.90;;;;;;6142298;23;20451;-93
2021/09/25 05:02:08;;;;;;;15.13;12.17;;;11.90;99.90;;;;;;6139082;23;20417;-91
2021/09/25 05:04:37;;;;;;;13.27;11.50;;;11.90;99.90;;;;;;6141676;23;20422;-90
2021/09/25 05:07:04;;;;;;;14.13;12.70;;;11.90;99.90;;;;;;6143331;23;20449;-92
2021/09/25 05:09:31;;;;;;;13.27;11.53;;;11.80;99.90;;;;;;6140647;23;20473;-92
2021/09/25 05:11:57;;;;;;;17.20;12.57;;;11.80;99.90;;;;;;6141096;23;20404;-92
2021/09/25 05:14:24;;;;;;;13.73;12.10;;;11.80;99.90;;;;;;6146874;23;20427;-91
2021/09/25 05:16:51;;;;;;;14.27;12.03;;;11.80;99.90;;;;;;6153673;23;20481;-90
2021/09/25 05:19:18;;;;;;;16.20;13.37;;;11.70;99.90;;;;;;6150428;23;20408;-91
2021/09/25 05:21:46;;;;;;;15.87;14.33;;;11.70;99.90;;;;;;6153267;23;20411;-90
2021/09/25 05:24:13;;;;;;;17.60;13.73;;;11.70;99.90;;;;;;6145127;23;20530;-91
2021/09/25 05:26:42;;;;;;;17.20;14.73;;;11.80;99.90;;;;;;6143451;23;20428;-90
2021/09/25 05:29:09;;;;;;;15.30;13.63;;;11.80;99.90;;;;;;6140725;23;20500;-92
2021/09/25 05:31:38;;;;;;;15.13;13.47;;;11.90;99.90;;;;;;6140731;23;20419;-89
2021/09/25 05:34:05;;;;;;;13.77;12.47;;;11.90;99.90;;;;;;6149531;23;20453;-89
2021/09/25 05:36:32;;;;;;;15.97;14.23;;;11.90;99.90;;;;;;6144697;23;20461;-90
2021/09/25 05:39:00;;;;;;;14.73;13.20;;;12.00;99.90;;;;;;6139120;23;20546;-91
2021/09/25 05:41:27;;;;;;;16.30;13.53;;;12.00;99.90;;;;;;6137555;23;20404;-91
2021/09/25 05:43:55;;;;;;;18.50;14.67;;;12.00;99.90;;;;;;6141699;23;20968;-93
2021/09/25 05:46:22;;;;;;;16.70;15.00;;;12.00;99.90;;;;;;6138086;23;20442;-91
2021/09/25 05:48:51;;;;;;;17.20;14.47;;;11.90;99.90;;;;;;6143130;23;20402;-93
2021/09/25 05:51:19;;;;;;;21.73;13.73;;;12.00;99.90;;;;;;6149260;23;20418;-91
2021/09/25 05:53:45;;;;;;;16.57;13.80;;;12.00;99.90;;;;;;6153629;23;20463;-90
2021/09/25 05:56:14;;;;;;;15.03;13.40;;;12.00;99.90;;;;;;6152711;23;20404;-90
2021/09/25 05:58:40;;;;;;;15.80;14.10;;;12.00;99.90;;;;;;6142401;23;20507;-90
2021/09/25 06:01:07;;;;;;;20.60;13.53;;;12.00;99.90;;;;;;6138803;23;20403;-89
2021/09/25 06:03:34;;;;;;;17.00;14.93;;;12.00;99.90;;;;;;6144734;23;20439;-90
2021/09/25 06:06:01;;;;;;;16.43;14.43;;;12.10;99.90;;;;;;6130297;23;20458;-91
2021/09/25 06:08:29;;;;;;;16.40;13.90;;;12.00;99.90;;;;;;6132110;23;20415;-89
2021/09/25 06:10:55;;;;;;;19.60;15.60;;;12.00;99.90;;;;;;6137527;23;20387;-89
2021/09/25 06:13:23;;;;;;;16.53;14.67;;;12.10;99.90;;;;;;6131873;23;20483;-90
2021/09/25 06:15:51;;;;;;;17.13;15.40;;;12.10;99.90;;;;;;6132347;23;20426;-90
2021/09/25 06:18:17;;;;;;;17.37;15.13;;;12.10;99.90;;;;;;6132612;23;20424;-91
2021/09/25 06:20:44;;;;;;;16.23;13.23;;;12.10;99.90;;;;;;6131280;23;20419;-91
2021/09/25 06:23:11;;;;;;;20.63;16.33;;;12.20;99.90;;;;;;6148318;23;20453;-88
2021/09/25 06:25:38;;;;;;;22.13;16.27;;;12.20;99.90;;;;;;6138704;23;20815;-89
2021/09/25 06:28:05;;;;;;;20.30;17.80;;;12.30;99.90;;;;;;6146891;23;20507;-91
2021/09/25 06:30:40;;;;;;;23.17;15.40;;;12.30;99.90;;;;;;6142121;23;20392;-91
2021/09/25 06:33:06;;;;;;;21.97;16.53;;;12.30;99.90;;;;;;6153137;23;20396;-89
2021/09/25 06:35:34;;;;;;;20.67;16.30;;;12.40;99.90;;;;;;6145134;23;20426;-90
2021/09/25 06:38:01;;;;;;;22.27;14.47;;;12.50;99.90;;;;;;6151426;23;20409;-89
2021/09/25 06:40:28;;;;;;;17.93;14.23;;;12.50;99.90;;;;;;6138578;23;20403;-91
2021/09/25 06:42:55;;;;;;;15.80;14.20;;;12.60;99.90;;;;;;6146970;23;20451;-90
2021/09/25 06:45:22;;;;;;;17.30;15.70;;;12.60;99.90;;;;;;6131837;23;20442;-93
2021/09/25 06:47:50;;;;;;;18.47;16.53;;;12.80;99.90;;;;;;6128728;23;20398;-91
2021/09/25 06:50:17;;;;;;;17.70;15.83;;;12.90;99.90;;;;;;6127688;23;20410;-92
2021/09/25 06:52:44;;;;;;;16.63;14.80;;;12.90;99.90;;;;;;6128032;23;20408;-92
2021/09/25 06:55:12;;;;;;;16.30;14.00;;;13.00;99.90;;;;;;6128838;23;20423;-91
2021/09/25 06:57:38;;;;;;;16.70;14.03;;;13.00;99.90;;;;;;6130145;23;20404;-91
2021/09/25 07:00:06;;;;;;;20.00;13.87;;;13.10;99.90;;;;;;6127632;23;20411;-92
2021/09/25 07:02:37;;;;;;;15.30;13.67;;;13.10;99.90;;;;;;6134112;23;20413;-90
2021/09/25 07:05:06;;;;;;;14.67;12.47;;;13.20;99.90;;;;;;6150181;23;20378;-90
2021/09/25 07:07:33;;;;;;;13.03;11.20;;;13.30;99.90;;;;;;6143029;23;20385;-90
2021/09/25 07:10:00;;;;;;;14.80;11.93;;;13.30;99.90;;;;;;6141443;23;20402;-91
2021/09/25 07:12:27;;;;;;;13.80;12.40;;;13.30;99.90;;;;;;6132743;23;20394;-90
2021/09/25 07:14:54;;;;;;;13.60;11.70;;;13.40;99.90;;;;;;6131545;23;20409;-91
2021/09/25 07:17:21;;;;;;;11.63;10.33;;;13.50;99.90;;;;;;6139401;23;20401;-91
2021/09/25 07:19:48;;;;;;;13.17;11.07;;;13.50;99.90;;;;;;6133884;23;20405;-91
2021/09/25 07:22:16;;;;;;;12.27;11.17;;;13.70;99.90;;;;;;6132223;23;20945;-88
2021/09/25 07:24:46;;;;;;;11.87;10.63;;;13.80;99.90;;;;;;6136879;23;20441;-89
2021/09/25 07:27:12;;;;;;;11.73;10.10;;;13.80;99.90;;;;;;6137555;23;20377;-89
2021/09/25 07:29:39;;;;;;;11.23;10.13;;;13.90;99.90;;;;;;6129977;23;20424;-88
2021/09/25 07:32:07;;;;;;;11.80;10.60;;;14.00;99.90;;;;;;6143924;23;20413;-88
2021/09/25 07:34:34;;;;;;;11.67;10.47;;;14.00;99.90;;;;;;6138167;23;20871;-90
2021/09/25 07:37:00;;;;;;;13.03;10.57;;;14.10;99.90;;;;;;6128742;23;20436;-90
2021/09/25 07:39:28;;;;;;;11.43;10.20;;;14.20;99.90;;;;;;6128249;23;20405;-90
2021/09/25 07:41:55;;;;;;;11.93;10.00;;;14.30;99.90;;;;;;6128376;23;20768;-87
2021/09/25 07:44:22;;;;;;;11.20;9.20;;;14.40;99.90;;;;;;6129465;23;20456;-89
2021/09/25 07:46:49;;;;;;;11.90;10.80;;;14.50;99.90;;;;;;6130712;23;20435;-89
2021/09/25 07:49:16;;;;;;;11.50;9.50;;;14.70;99.90;;;;;;6128061;23;20912;-88
2021/09/25 07:51:43;;;;;;;10.23;9.13;;;14.80;99.90;;;;;;6128122;23;20399;-89
2021/09/25 07:54:09;;;;;;;13.63;9.80;;;14.90;99.90;;;;;;6128750;23;20905;-89
2021/09/25 07:56:37;;;;;;;13.17;11.37;;;15.00;99.90;;;;;;6142227;23;20429;-88
2021/09/25 07:59:04;;;;;;;15.47;10.60;;;15.10;99.90;;;;;;6128892;23;20399;-88
2021/09/25 08:01:31;;;;;;;11.07;10.03;;;15.20;99.90;;;;;;6128238;23;20892;-89
2021/09/25 08:03:59;;;;;;;11.20;10.00;;;15.40;99.90;;;;;;6128800;23;20446;-89
2021/09/25 08:06:26;;;;;;;11.30;10.10;;;15.50;99.90;;;;;;6127947;23;20496;-90
2021/09/25 08:08:53;;;;;;;10.50;9.40;;;15.60;99.90;;;;;;6135256;23;20407;-87
2021/09/25 08:11:20;;;;;;;10.27;9.17;;;15.70;99.90;;;;;;6133090;23;20490;-90
2021/09/25 08:13:48;;;;;;;11.87;10.10;;;15.80;99.90;;;;;;6134395;23;20396;-87
2021/09/25 08:16:15;;;;;;;9.57;8.67;;;16.00;99.90;;;;;;6135126;23;20435;-89
2021/09/25 08:18:42;;;;;;;10.23;9.20;;;16.20;99.90;;;;;;6143960;23;20388;-89
2021/09/25 08:21:09;;;;;;;12.00;8.73;;;16.70;99.90;;;;;;6147565;23;20412;-90
2021/09/25 08:23:35;;;;;;;10.60;9.60;;;17.20;99.90;;;;;;6133637;23;20498;-90
2021/09/25 08:26:02;;;;;;;10.53;9.53;;;17.30;99.90;;;;;;6128185;23;20752;-89
2021/09/25 08:28:29;;;;;;;11.07;10.07;;;17.30;99.90;;;;;;6128194;23;20408;-89
2021/09/25 08:30:57;;;;;;;11.57;10.47;;;17.20;99.90;;;;;;6128702;23;20399;-88
2021/09/25 08:33:24;;;;;;;11.03;8.73;;;17.30;99.90;;;;;;6127958;23;20757;-89
2021/09/25 08:35:51;;;;;;;9.60;8.80;;;17.60;99.90;;;;;;6129868;23;20455;-89
2021/09/25 08:38:30;;;;;;;14.63;7.83;;;17.70;99.90;;;;;;6127611;23;20440;-89
2021/09/25 08:41:01;;;;;;;10.30;9.30;;;17.80;99.90;;;;;;6127576;23;20715;-89
2021/09/25 08:43:28;;;;;;;9.97;8.97;;;17.70;99.90;;;;;;6128346;23;20443;-88
2021/09/25 08:46:16;;;;;;;9.73;8.83;;;17.70;99.90;;;;;;6146213;23;20412;-89
2021/09/25 08:48:58;;;;;;;10.20;8.50;;;18.00;99.90;;;;;;6153034;23;20406;-90
2021/09/25 08:51:34;;;;;;;10.63;8.60;;;18.20;99.90;;;;;;6147355;23;20393;-90
2021/09/25 08:54:13;;;;;;;9.33;8.40;;;18.30;99.90;;;;;;6150012;23;20407;-90
2021/09/25 08:56:43;;;;;;;10.57;9.27;;;18.40;99.90;;;;;;6141964;23;20440;-90
2021/09/25 08:59:23;;;;;;;10.20;9.10;;;18.60;99.90;;;;;;6136162;23;20506;-90
2021/09/25 09:02:34;;;;;;;8.33;7.53;;;20.10;99.90;;;;;;6143132;23;20410;-90
2021/09/25 09:05:13;;;;;;;8.50;7.80;;;22.70;96.70;;;;;;6103528;23;20453;-90
2021/09/25 09:07:53;;;;;;;9.00;8.20;;;25.50;91.00;;;;;;6147370;23;20824;-89
2021/09/25 09:10:20;;;;;;;9.60;8.00;;;26.90;84.10;;;;;;6138683;23;20408;-89
2021/09/25 09:12:57;;;;;;;9.30;7.67;;;29.10;74.70;;;;;;6139002;23;20397;-90
2021/09/25 09:15:35;;;;;;;9.23;8.53;;;30.00;65.30;;;;;;6141541;23;20455;-90
2021/09/25 09:18:13;;;;;;;10.30;8.33;;;30.10;63.10;;;;;;6148137;23;20398;-90
2021/09/25 09:20:59;;;;;;;;;;;;;;;;;;;;;
2021/09/25 09:26:45;;;;;;;11.40;8.17;;;30.70;58.70;;;;;;6113572;23;20836;-88
2021/09/25 09:29:24;;;;;;;9.03;8.23;;;31.70;57.90;;;;;;6139890;23;20404;-89
2021/09/25 09:32:04;;;;;;;8.10;7.30;;;32.40;54.90;;;;;;6128993;23;20412;-89
2021/09/25 09:35:33;;;;;;;8.03;7.43;;;33.10;53.40;;;;;;6140105;23;20395;-89
2021/09/25 09:38:35;;;;;;;8.27;7.20;;;32.80;53.60;;;;;;6131437;23;20415;-90
2021/09/25 09:44:21;;;;;;;9.00;8.27;;;33.90;51.70;;;;;;6132020;23;20411;-89
2021/09/25 09:47:18;;;;;;;8.23;7.53;;;33.50;50.20;;;;;;6132558;23;20415;-90
2021/09/25 09:50:37;;;;;;;9.77;8.77;;;33.40;50.40;;;;;;6132387;23;20509;-89
2021/09/25 09:53:19;;;;;;;8.10;7.40;;;32.70;51.10;;;;;;6110812;23;20422;-89
2021/09/25 09:55:46;;;;;;;8.23;7.43;;;33.90;49.70;;;;;;6132875;23;20498;-90
2021/09/25 09:58:19;;;;;;;8.70;7.80;;;34.50;48.60;;;;;;6131196;23;20459;-91
2021/09/25 10:03:45;;;;;;;8.77;7.90;;;36.20;47.00;;;;;;6130053;23;20431;-89
2021/09/25 10:06:16;;;;;;;8.17;7.07;;;35.80;45.10;;;;;;6150175;23;20408;-91
2021/09/25 10:08:45;;;;;;;7.30;6.70;;;36.50;44.30;;;;;;6144002;23;20422;-88
2021/09/25 10:11:12;;;;;;;6.90;6.20;;;36.90;42.40;;;;;;6131766;23;20416;-89
2021/09/25 10:13:41;;;;;;;7.50;6.80;;;35.70;43.70;;;;;;6129194;23;20406;-87
2021/09/25 10:16:09;;;;;;;5.90;5.50;;;35.30;44.50;;;;;;6129297;23;20458;-88
2021/09/25 10:18:36;;;;;;;6.93;6.33;;;34.30;44.20;;;;;;6127831;23;20422;-90
2021/09/25 10:21:05;;;;;;;5.30;4.90;;;34.10;44.10;;;;;;6131227;23;20472;-90
2021/09/25 10:23:33;;;;;;;5.37;4.97;;;34.40;43.40;;;;;;6128107;23;20753;-91
2021/09/25 10:26:03;;;;;;;9.60;6.50;;;34.80;43.30;;;;;;6128907;23;20423;-90
2021/09/25 10:28:31;;;;;;;7.53;5.37;;;34.90;44.30;;;;;;6134815;23;20422;-91
2021/09/25 10:30:59;;;;;;;5.53;5.10;;;36.20;42.50;;;;;;6141993;23;20472;-90
2021/09/25 10:33:29;;;;;;;6.10;5.60;;;36.30;41.60;;;;;;6147935;23;20851;-89
2021/09/25 10:37:02;;;;;;;5.93;5.00;;;35.90;41.50;;;;;;6147648;23;20459;-89
2021/09/25 10:40:03;;;;;;;4.90;4.50;;;36.20;41.10;;;;;;6020911;23;20439;-89
2021/09/25 10:45:52;;;;;;;5.70;5.30;;;36.80;40.60;;;;;;6012228;23;20455;-89
2021/09/25 10:48:31;;;;;;;6.43;5.80;;;36.60;40.60;;;;;;6101380;23;20417;-89
2021/09/25 10:51:00;;;;;;;5.60;5.10;;;35.70;41.90;;;;;;6128722;23;20430;-89
2021/09/25 10:53:32;;;;;;;5.80;5.30;;;36.50;42.10;;;;;;6127774;23;20454;-90
2021/09/25 10:56:05;;;;;;;10.63;6.83;;;36.90;40.30;;;;;;6128317;23;20431;-91
2021/09/25 10:58:34;;;;;;;6.37;5.77;;;37.30;39.50;;;;;;6128067;23;20422;-91
2021/09/25 11:01:06;;;;;;;5.80;4.87;;;36.80;40.40;;;;;;6127275;23;20404;-90
2021/09/25 11:04:04;;;;;;;15.73;7.93;;;37.90;39.70;;;;;;6129395;23;20388;-91
2021/09/25 11:06:39;;;;;;;9.10;6.13;;;37.80;38.40;;;;;;6138079;23;20443;-89
2021/09/25 11:09:07;;;;;;;8.63;5.80;;;38.30;37.80;;;;;;6131011;23;20391;-89
2021/09/25 11:11:41;;;;;;;5.23;4.77;;;38.20;38.10;;;;;;6138336;23;20392;-89
2021/09/25 11:14:23;;;;;;;6.50;5.90;;;38.50;38.30;;;;;;6132551;23;20402;-91
2021/09/25 11:17:07;;;;;;;5.63;5.03;;;38.70;37.20;;;;;;6130898;23;20674;-91
2021/09/25 11:19:44;;;;;;;6.27;5.87;;;39.00;36.90;;;;;;6135861;23;20396;-89
2021/09/25 11:22:15;;;;;;;5.97;5.40;;;38.50;36.60;;;;;;6130478;23;20484;-91
2021/09/25 11:24:47;;;;;;;5.93;5.60;;;39.30;37.30;;;;;;6130967;23;20431;-92
2021/09/25 11:27:18;;;;;;;5.90;5.30;;;38.50;36.40;;;;;;6128579;23;20376;-90
2021/09/25 11:30:12;;;;;;;6.40;5.90;;;39.40;36.90;;;;;;6128778;23;20448;-90
2021/09/25 11:32:42;;;;;;;5.50;5.10;;;39.10;36.30;;;;;;6131080;23;20434;-91
2021/09/25 11:35:14;;;;;;;5.33;4.83;;;39.30;36.10;;;;;;6128747;23;20416;-91
2021/09/25 11:37:50;;;;;;;6.07;5.60;;;40.50;35.20;;;;;;6135579;23;20408;-89
2021/09/25 11:40:18;;;;;;;5.27;4.90;;;40.50;35.10;;;;;;6133908;23;20439;-90
2021/09/25 11:42:46;;;;;;;6.87;6.37;;;40.20;35.10;;;;;;6134823;23;20423;-89
2021/09/25 11:45:17;;;;;;;5.60;5.20;;;39.50;35.40;;;;;;6130230;23;20459;-90
2021/09/25 11:47:45;;;;;;;5.30;4.90;;;39.50;36.20;;;;;;6128059;23;20424;-90
2021/09/25 11:50:16;;;;;;;5.73;5.33;;;40.70;35.00;;;;;;6127330;23;20441;-90
2021/09/25 11:52:45;;;;;;;5.50;4.77;;;40.40;34.10;;;;;;6125576;23;20712;-90
2021/09/25 11:55:13;;;;;;;5.63;5.23;;;40.70;34.30;;;;;;6131106;23;20473;-88
2021/09/25 11:58:20;;;;;;;5.83;5.40;;;39.60;34.80;;;;;;6146111;23;20384;-91
2021/09/25 12:00:51;;;;;;;6.10;5.60;;;39.50;35.50;;;;;;6144027;23;20450;-90
2021/09/25 12:03:43;;;;;;;5.10;4.70;;;39.80;35.60;;;;;;6129772;23;20411;-90
2021/09/25 12:13:29;;;;;;;5.30;5.00;;;39.40;35.10;;;;;;6131615;23;20415;-91
2021/09/25 12:16:45;;;;;;;5.23;4.83;;;39.80;34.90;;;;;;6129196;23;20427;-87
2021/09/25 12:22:34;;;;;;;4.93;4.60;;;40.90;33.60;;;;;;6121662;23;20470;-91
2021/09/25 12:25:40;;;;;;;5.00;4.70;;;39.50;34.90;;;;;;6147101;23;20826;-90
2021/09/25 12:28:45;;;;;;;12.20;11.33;;;40.50;34.50;;;;;;6130879;23;20502;-90
2021/09/25 12:32:12;;;;;;;4.90;4.50;;;40.10;34.30;;;;;;6132585;23;20411;-90
2021/09/25 12:35:46;;;;;;;5.27;4.87;;;40.60;33.80;;;;;;6132238;23;20614;-90
2021/09/25 12:48:48;;;;;;;8.27;4.70;;;40.90;33.10;;;;;;5958363;23;20933;-90
2021/09/25 12:55:18;;;;;;;4.73;4.43;;;40.60;33.20;;;;;;6124027;23;20742;-91
2021/09/25 12:58:19;;;;;;;5.03;4.57;;;38.70;34.10;;;;;;6127658;23;20490;-92
2021/09/25 13:04:39;;;;;;;4.97;4.57;;;38.40;35.20;;;;;;6002165;23;20526;-92
2021/09/25 13:07:46;;;;;;;5.50;5.10;;;39.20;34.40;;;;;;6065102;23;20678;-92
2021/09/25 13:10:42;;;;;;;4.20;3.90;;;39.60;33.60;;;;;;6032590;23;20427;-92
2021/09/25 13:13:51;;;;;;;4.70;4.30;;;38.30;33.90;;;;;;6106095;23;20489;-91
2021/09/25 13:16:35;;;;;;;5.33;4.93;;;36.30;36.60;;;;;;6098402;23;20830;-91
2021/09/25 13:21:59;;;;;;;4.47;4.07;;;33.30;43.90;;;;;;6090343;23;20423;-91
2021/09/25 13:27:48;;;;;;;4.37;3.97;;;31.80;44.30;;;;;;6100706;23;20961;-90
2021/09/25 13:33:04;;;;;;;5.57;4.50;;;31.40;45.20;;;;;;6144781;23;20439;-91
2021/09/25 13:35:35;;;;;;;5.40;4.23;;;31.20;46.30;;;;;;6152860;23;20439;-91
2021/09/25 13:38:02;;;;;;;5.17;4.70;;;30.40;47.60;;;;;;6143828;23;20438;-92
2021/09/25 13:40:50;;;;;;;5.70;5.20;;;30.50;48.10;;;;;;6137478;23;20422;-91
2021/09/25 13:43:17;;;;;;;4.47;4.17;;;30.30;48.30;;;;;;6132464;23;20747;-91
2021/09/25 13:46:23;;;;;;;5.07;4.67;;;30.10;47.90;;;;;;6129753;23;20458;-90
2021/09/25 13:52:52;;;;;;;6.33;4.30;;;30.00;48.30;;;;;;6148380;23;20395;-91
2021/09/25 13:55:50;;;;;;;7.23;4.70;;;30.20;48.50;;;;;;6130846;23;20438;-90
2021/09/25 13:58:28;;;;;;;5.70;5.13;;;30.20;48.40;;;;;;6127669;23;20411;-91
2021/09/25 14:01:22;;;;;;;3.80;3.50;;;30.60;48.40;;;;;;6128855;23;20890;-91
2021/09/25 14:03:59;;;;;;;6.43;4.30;;;30.80;46.90;;;;;;6129900;23;20412;-92